createdAt,value
2016-08-08T00:00:30.321Z,0
2016-08-08T00:01:31.057Z,0
2016-08-08T00:02:30.308Z,0
2016-08-08T00:03:30.351Z,0
2016-08-08T00:04:30.395Z,0
2016-08-08T00:05:30.439Z,0
2016-08-08T00:06:30.329Z,0
2016-08-08T00:07:30.325Z,0
2016-08-08T00:08:30.324Z,0
2016-08-08T00:09:30.326Z,0
2016-08-08T00:10:30.387Z,0
2016-08-08T00:12:30.336Z,0
2016-08-08T00:13:30.333Z,0
2016-08-08T00:14:30.331Z,0
2016-08-08T00:15:30.338Z,0
2016-08-08T00:16:30.336Z,0
2016-08-08T00:17:30.351Z,0
2016-08-08T00:18:30.339Z,0
2016-08-08T00:19:30.352Z,0
2016-08-08T00:20:30.353Z,0
2016-08-08T00:21:30.364Z,0
2016-08-08T00:22:30.348Z,0
2016-08-08T00:23:30.347Z,0
2016-08-08T00:24:30.359Z,0
2016-08-08T00:25:30.414Z,0
2016-08-08T00:26:30.355Z,0
2016-08-08T00:27:30.373Z,0
2016-08-08T00:28:30.359Z,0
2016-08-08T00:29:30.367Z,0
2016-08-08T00:30:30.378Z,0
2016-08-08T00:31:30.370Z,0
2016-08-08T00:32:30.369Z,0
2016-08-08T00:33:30.371Z,0
2016-08-08T00:34:30.375Z,0
2016-08-08T00:35:30.373Z,0
2016-08-08T00:36:30.370Z,0
2016-08-08T00:37:30.387Z,0
2016-08-08T00:38:30.412Z,0
2016-08-08T00:39:30.407Z,0
2016-08-08T00:40:30.489Z,0
2016-08-08T00:41:30.379Z,0
2016-08-08T00:42:30.386Z,0
2016-08-08T00:43:30.389Z,0
2016-08-08T00:44:30.388Z,0
2016-08-08T00:45:30.425Z,0
2016-08-08T00:46:30.390Z,0
2016-08-08T00:47:30.403Z,0
2016-08-08T00:48:30.402Z,0
2016-08-08T00:49:30.401Z,0
2016-08-08T00:50:31.121Z,0
2016-08-08T00:51:30.410Z,0
2016-08-08T00:52:30.406Z,0
2016-08-08T00:53:30.459Z,0
2016-08-08T00:54:30.403Z,0
2016-08-08T00:55:30.408Z,0
2016-08-08T00:56:30.411Z,0
2016-08-08T00:57:30.409Z,0
2016-08-08T00:58:30.416Z,0
2016-08-08T00:59:30.413Z,0
2016-08-08T01:00:30.422Z,0
2016-08-08T01:01:30.423Z,0
2016-08-08T01:02:30.415Z,0
2016-08-08T01:03:30.423Z,0
2016-08-08T01:04:30.422Z,0
2016-08-08T01:05:30.434Z,0
2016-08-08T01:06:31.141Z,0
2016-08-08T01:07:30.426Z,0
2016-08-08T01:08:30.428Z,0
2016-08-08T01:09:31.147Z,0
2016-08-08T01:10:30.442Z,0
2016-08-08T01:11:31.145Z,0
2016-08-08T01:12:30.438Z,0
2016-08-08T01:13:30.454Z,0
2016-08-08T01:14:30.514Z,0
2016-08-08T01:15:30.524Z,0
2016-08-08T01:16:30.448Z,0
2016-08-08T01:17:30.447Z,0
2016-08-08T01:18:30.457Z,0
2016-08-08T01:19:30.458Z,0
2016-08-08T01:20:30.447Z,0
2016-08-08T01:21:30.450Z,0
2016-08-08T01:22:30.449Z,0
2016-08-08T01:23:30.448Z,0
2016-08-08T01:24:30.455Z,0
2016-08-08T01:25:30.453Z,0
2016-08-08T01:26:30.459Z,0
2016-08-08T01:27:30.458Z,0
2016-08-08T01:28:30.465Z,0
2016-08-08T01:29:30.457Z,0
2016-08-08T01:30:30.479Z,0
2016-08-08T01:31:30.470Z,0
2016-08-08T01:32:30.467Z,0
2016-08-08T01:33:31.174Z,0
2016-08-08T01:34:30.472Z,0
2016-08-08T01:35:30.468Z,0
2016-08-08T01:36:30.466Z,0
2016-08-08T01:37:30.479Z,0
2016-08-08T01:38:31.186Z,0
2016-08-08T01:39:30.472Z,0
2016-08-08T01:40:30.473Z,0
2016-08-08T01:41:30.472Z,0
2016-08-08T01:42:30.480Z,0
2016-08-08T01:43:30.487Z,0
2016-08-08T01:44:30.479Z,0
2016-08-08T01:45:31.194Z,0
2016-08-08T01:46:30.495Z,0
2016-08-08T01:47:30.478Z,0
2016-08-08T01:48:30.491Z,0
2016-08-08T01:49:30.498Z,0
2016-08-08T01:50:30.486Z,0
2016-08-08T01:51:30.499Z,0
2016-08-08T01:52:30.497Z,0
2016-08-08T01:53:30.538Z,0
2016-08-08T01:54:30.490Z,0
2016-08-08T01:55:30.497Z,0
2016-08-08T01:56:30.501Z,0
2016-08-08T01:57:31.210Z,0
2016-08-08T01:58:30.544Z,0
2016-08-08T01:59:30.501Z,0
2016-08-08T02:00:30.522Z,0
2016-08-08T02:01:30.513Z,0
2016-08-08T02:02:30.512Z,0
2016-08-08T02:03:30.512Z,0
2016-08-08T02:04:30.529Z,0
2016-08-08T02:05:31.232Z,0
2016-08-08T02:06:30.519Z,0
2016-08-08T02:07:31.235Z,0
2016-08-08T02:08:30.525Z,0
2016-08-08T02:09:30.525Z,0
2016-08-08T02:10:30.530Z,0
2016-08-08T02:11:30.525Z,0
2016-08-08T02:12:30.542Z,0
2016-08-08T02:13:30.526Z,0
2016-08-08T02:14:31.235Z,0
2016-08-08T02:15:30.526Z,0
2016-08-08T02:16:30.535Z,0
2016-08-08T02:17:31.251Z,0
2016-08-08T02:18:30.552Z,0
2016-08-08T02:19:30.567Z,0
2016-08-08T02:20:31.240Z,0
2016-08-08T02:21:31.271Z,0
2016-08-08T02:22:30.546Z,0
2016-08-08T02:23:31.238Z,0
2016-08-08T02:24:30.542Z,0
2016-08-08T02:25:30.553Z,0
2016-08-08T02:26:30.541Z,0
2016-08-08T02:27:30.564Z,0
2016-08-08T02:28:30.556Z,0
2016-08-08T02:29:30.542Z,0
2016-08-08T02:30:30.550Z,0
2016-08-08T02:31:30.548Z,0
2016-08-08T02:32:30.552Z,0
2016-08-08T02:33:30.547Z,0
2016-08-08T02:34:30.547Z,0
2016-08-08T02:35:30.548Z,0
2016-08-08T02:36:30.554Z,0
2016-08-08T02:37:30.574Z,0
2016-08-08T02:38:31.265Z,0
2016-08-08T02:39:31.264Z,0
2016-08-08T02:40:30.562Z,0
2016-08-08T02:41:30.565Z,0
2016-08-08T02:42:30.558Z,0
2016-08-08T02:43:30.559Z,0
2016-08-08T02:44:30.560Z,0
2016-08-08T02:45:30.578Z,0
2016-08-08T02:46:30.561Z,0
2016-08-08T02:47:30.581Z,0
2016-08-08T02:48:30.571Z,0
2016-08-08T02:49:30.589Z,0
2016-08-08T02:50:30.568Z,0
2016-08-08T02:51:30.569Z,0
2016-08-08T02:52:31.293Z,0
2016-08-08T02:53:30.620Z,0
2016-08-08T02:54:30.580Z,0
2016-08-08T02:55:30.598Z,0
2016-08-08T02:56:30.581Z,0
2016-08-08T02:57:30.599Z,0
2016-08-08T02:58:30.611Z,0
2016-08-08T02:59:31.304Z,0
2016-08-08T03:00:30.598Z,0
2016-08-08T03:01:30.612Z,0
2016-08-08T03:02:30.611Z,0
2016-08-08T03:03:30.603Z,0
2016-08-08T03:04:31.298Z,0
2016-08-08T03:05:30.676Z,0
2016-08-08T03:06:30.605Z,0
2016-08-08T03:07:30.601Z,0
2016-08-08T03:08:30.610Z,0
2016-08-08T03:09:30.611Z,0
2016-08-08T03:10:30.610Z,0
2016-08-08T03:11:30.614Z,0
2016-08-08T03:12:30.601Z,0
2016-08-08T03:13:30.608Z,0
2016-08-08T03:14:30.603Z,0
2016-08-08T03:15:30.606Z,0
2016-08-08T03:16:30.620Z,0
2016-08-08T03:17:30.613Z,0
2016-08-08T03:18:30.611Z,0
2016-08-08T03:19:30.613Z,0
2016-08-08T03:20:30.617Z,0
2016-08-08T03:21:30.614Z,0
2016-08-08T03:22:30.610Z,0
2016-08-08T03:23:30.629Z,0
2016-08-08T03:24:30.612Z,0
2016-08-08T03:25:30.689Z,4
2016-08-08T03:26:30.628Z,4
2016-08-08T03:27:30.626Z,4
2016-08-08T03:28:31.323Z,0
2016-08-08T03:29:30.621Z,4
2016-08-08T03:30:30.628Z,4
2016-08-08T03:31:30.618Z,0
2016-08-08T03:32:30.619Z,4
2016-08-08T03:33:30.630Z,8
2016-08-08T03:34:31.328Z,4
2016-08-08T03:35:31.440Z,4
2016-08-08T03:36:30.628Z,4
2016-08-08T03:37:30.620Z,8
2016-08-08T03:38:30.627Z,8
2016-08-08T03:39:30.620Z,12
2016-08-08T03:40:30.669Z,12
2016-08-08T03:41:30.623Z,16
2016-08-08T03:43:31.337Z,20
2016-08-08T03:44:30.625Z,24
2016-08-08T03:45:30.627Z,28
2016-08-08T03:46:30.625Z,28
2016-08-08T03:47:30.632Z,36
2016-08-08T03:48:30.638Z,40
2016-08-08T03:49:30.631Z,48
2016-08-08T03:50:30.646Z,52
2016-08-08T03:51:30.629Z,60
2016-08-08T03:52:30.621Z,68
2016-08-08T03:53:30.935Z,80
2016-08-08T03:54:30.637Z,88
2016-08-08T03:55:30.625Z,96
2016-08-08T03:56:30.642Z,112
2016-08-08T03:57:30.652Z,124
2016-08-08T03:58:31.342Z,136
2016-08-08T03:59:30.626Z,152
2016-08-08T04:00:30.633Z,168
2016-08-08T04:01:30.629Z,184
2016-08-08T04:02:30.637Z,208
2016-08-08T04:03:30.643Z,224
2016-08-08T04:04:30.644Z,248
2016-08-08T04:05:31.337Z,272
2016-08-08T04:06:30.646Z,292
2016-08-08T04:07:30.633Z,320
2016-08-08T04:08:30.633Z,348
2016-08-08T04:09:30.635Z,376
2016-08-08T04:10:30.640Z,404
2016-08-08T04:11:30.636Z,436
2016-08-08T04:12:30.682Z,472
2016-08-08T04:13:30.636Z,504
2016-08-08T04:14:30.633Z,540
2016-08-08T04:15:30.705Z,576
2016-08-08T04:16:30.640Z,616
2016-08-08T04:17:30.637Z,656
2016-08-08T04:18:30.638Z,696
2016-08-08T04:19:30.642Z,740
2016-08-08T04:20:30.638Z,780
2016-08-08T04:21:30.638Z,824
2016-08-08T04:22:30.646Z,868
2016-08-08T04:23:30.640Z,912
2016-08-08T04:24:30.643Z,960
2016-08-08T04:25:30.651Z,1000
2016-08-08T04:26:30.642Z,1048
2016-08-08T04:28:30.659Z,1136
2016-08-08T04:29:30.647Z,1188
2016-08-08T04:30:30.648Z,1232
2016-08-08T04:31:30.649Z,1280
2016-08-08T04:32:30.646Z,1328
2016-08-08T04:33:30.648Z,1376
2016-08-08T04:34:30.649Z,1596
2016-08-08T04:35:30.651Z,2124
2016-08-08T04:36:30.649Z,2704
2016-08-08T04:37:30.653Z,2960
2016-08-08T04:38:30.654Z,3072
2016-08-08T04:39:30.655Z,3116
2016-08-08T04:40:30.719Z,3276
2016-08-08T04:41:30.654Z,3464
2016-08-08T04:43:31.383Z,3732
2016-08-08T04:44:30.660Z,3856
2016-08-08T04:45:30.667Z,3960
2016-08-08T04:46:30.678Z,4052
2016-08-08T04:47:30.661Z,4144
2016-08-08T04:48:30.664Z,4252
2016-08-08T04:49:30.673Z,4364
2016-08-08T04:50:30.711Z,4452
2016-08-08T04:51:30.676Z,4632
2016-08-08T04:52:30.672Z,4768
2016-08-08T04:53:30.875Z,4884
2016-08-08T04:54:30.689Z,4992
2016-08-08T04:55:30.687Z,5060
2016-08-08T04:56:30.678Z,5212
2016-08-08T04:58:30.695Z,5572
2016-08-08T04:59:30.690Z,5680
2016-08-08T05:00:30.697Z,5784
2016-08-08T05:01:30.695Z,5840
2016-08-08T05:02:30.702Z,5688
2016-08-08T05:03:30.712Z,5596
2016-08-08T05:04:30.710Z,5644
2016-08-08T05:05:30.707Z,5808
2016-08-08T05:06:30.710Z,6024
2016-08-08T05:07:30.739Z,6152
2016-08-08T05:08:31.418Z,6344
2016-08-08T05:09:30.725Z,6496
2016-08-08T05:10:30.740Z,6648
2016-08-08T05:11:30.730Z,6772
2016-08-08T05:13:30.743Z,7064
2016-08-08T05:14:30.731Z,7080
2016-08-08T05:15:30.732Z,7128
2016-08-08T05:16:30.736Z,7156
2016-08-08T05:17:30.742Z,7204
2016-08-08T05:18:30.749Z,7220
2016-08-08T05:19:31.457Z,7268
2016-08-08T05:20:30.762Z,7276
2016-08-08T05:21:30.761Z,7304
2016-08-08T05:22:30.759Z,7288
2016-08-08T05:23:30.765Z,7240
2016-08-08T05:24:30.781Z,7132
2016-08-08T05:25:30.790Z,7096
2016-08-08T05:26:30.773Z,6980
2016-08-08T05:27:30.822Z,6820
2016-08-08T05:28:30.793Z,6560
2016-08-08T05:29:30.804Z,6276
2016-08-08T05:30:30.812Z,5844
2016-08-08T05:31:30.817Z,5388
2016-08-08T05:32:31.525Z,5012
2016-08-08T05:33:30.818Z,4756
2016-08-08T05:34:31.528Z,4576
2016-08-08T05:35:30.821Z,4464
2016-08-08T05:36:30.835Z,4364
2016-08-08T05:37:30.824Z,4336
2016-08-08T05:38:30.824Z,4328
2016-08-08T05:39:30.836Z,4336
2016-08-08T05:40:30.932Z,4348
2016-08-08T05:41:30.841Z,4392
2016-08-08T05:42:30.840Z,4440
2016-08-08T05:43:30.844Z,4504
2016-08-08T05:44:30.850Z,4584
2016-08-08T05:45:30.846Z,4672
2016-08-08T05:46:30.852Z,4684
2016-08-08T05:47:30.861Z,4704
2016-08-08T05:48:30.886Z,4712
2016-08-08T05:49:30.859Z,4700
2016-08-08T05:50:30.904Z,4664
2016-08-08T05:51:30.887Z,4608
2016-08-08T05:52:30.885Z,4532
2016-08-08T05:53:30.921Z,4448
2016-08-08T05:54:30.892Z,4408
2016-08-08T05:55:30.909Z,4400
2016-08-08T05:56:30.888Z,4408
2016-08-08T05:57:30.889Z,4620
2016-08-08T05:58:30.886Z,5124
2016-08-08T05:59:30.890Z,5872
2016-08-08T06:00:30.900Z,6584
2016-08-08T06:01:30.898Z,7120
2016-08-08T06:02:30.899Z,7552
2016-08-08T06:03:30.904Z,7892
2016-08-08T06:04:30.908Z,8052
2016-08-08T06:05:31.639Z,7908
2016-08-08T06:06:30.928Z,7548
2016-08-08T06:07:30.926Z,7120
2016-08-08T06:08:31.638Z,6592
2016-08-08T06:09:30.932Z,6196
2016-08-08T06:10:31.029Z,5916
2016-08-08T06:11:30.934Z,5728
2016-08-08T06:12:30.936Z,5624
2016-08-08T06:13:30.945Z,5640
2016-08-08T06:14:30.954Z,5780
2016-08-08T06:15:30.949Z,6076
2016-08-08T06:16:30.954Z,6488
2016-08-08T06:17:30.972Z,7024
2016-08-08T06:18:30.964Z,7708
2016-08-08T06:19:30.968Z,8372
2016-08-08T06:20:30.969Z,8888
2016-08-08T06:21:30.972Z,9568
2016-08-08T06:22:30.992Z,10104
2016-08-08T06:23:30.996Z,10432
2016-08-08T06:24:30.980Z,10720
2016-08-08T06:25:31.005Z,10904
2016-08-08T06:26:30.997Z,11036
2016-08-08T06:27:30.995Z,11092
2016-08-08T06:28:31.022Z,11204
2016-08-08T06:29:31.010Z,11244
2016-08-08T06:30:31.060Z,11272
2016-08-08T06:31:31.720Z,11356
2016-08-08T06:32:31.019Z,11416
2016-08-08T06:33:31.030Z,11488
2016-08-08T06:34:31.030Z,11548
2016-08-08T06:35:31.080Z,11608
2016-08-08T06:36:31.042Z,11584
2016-08-08T06:37:31.050Z,11596
2016-08-08T06:38:31.073Z,11612
2016-08-08T06:39:31.059Z,11604
2016-08-08T06:40:31.102Z,11616
2016-08-08T06:41:31.073Z,11604
2016-08-08T06:42:31.090Z,11632
2016-08-08T06:43:31.091Z,11656
2016-08-08T06:44:31.093Z,11648
2016-08-08T06:45:31.113Z,11628
2016-08-08T06:46:31.116Z,11696
2016-08-08T06:47:31.820Z,11744
2016-08-08T06:48:31.843Z,11780
2016-08-08T06:49:31.146Z,11780
2016-08-08T06:50:31.165Z,11856
2016-08-08T06:51:31.155Z,11912
2016-08-08T06:52:31.176Z,11920
2016-08-08T06:53:31.212Z,11944
2016-08-08T06:54:31.172Z,11948
2016-08-08T06:55:31.176Z,11960
2016-08-08T06:56:31.198Z,11964
2016-08-08T06:57:31.188Z,11988
2016-08-08T06:58:31.189Z,12008
2016-08-08T06:59:31.918Z,12004
2016-08-08T07:00:31.226Z,12024
2016-08-08T07:01:31.231Z,12060
2016-08-08T07:02:31.240Z,12036
2016-08-08T07:03:31.945Z,12080
2016-08-08T07:04:31.246Z,12088
2016-08-08T07:05:31.364Z,12128
2016-08-08T07:06:31.256Z,12148
2016-08-08T07:07:31.256Z,12164
2016-08-08T07:08:31.262Z,12148
2016-08-08T07:09:31.299Z,12212
2016-08-08T07:10:31.301Z,12216
2016-08-08T07:11:31.298Z,12152
2016-08-08T07:12:31.298Z,12244
2016-08-08T07:13:31.310Z,12184
2016-08-08T07:14:31.345Z,12160
2016-08-08T07:15:31.416Z,12188
2016-08-08T07:16:31.333Z,12196
2016-08-08T07:17:31.358Z,12224
2016-08-08T07:18:31.359Z,12216
2016-08-08T07:19:31.355Z,12208
2016-08-08T07:20:31.364Z,12244
2016-08-08T07:21:31.381Z,12240
2016-08-08T07:22:31.379Z,12236
2016-08-08T07:23:31.393Z,12276
2016-08-08T07:24:31.404Z,12288
2016-08-08T07:25:31.404Z,12328
2016-08-08T07:26:31.428Z,12288
2016-08-08T07:27:31.429Z,12292
2016-08-08T07:28:31.428Z,12288
2016-08-08T07:29:31.443Z,12316
2016-08-08T07:30:31.448Z,12324
2016-08-08T07:31:31.464Z,12424
2016-08-08T07:32:31.477Z,12328
2016-08-08T07:33:31.474Z,12336
2016-08-08T07:34:31.486Z,12352
2016-08-08T07:35:31.597Z,12320
2016-08-08T07:36:31.503Z,12312
2016-08-08T07:37:31.518Z,11676
2016-08-08T07:38:32.226Z,10856
2016-08-08T07:39:31.525Z,11328
2016-08-08T07:40:31.537Z,11844
2016-08-08T07:41:31.566Z,11856
2016-08-08T07:42:31.564Z,11844
2016-08-08T07:43:31.583Z,11848
2016-08-08T07:44:31.578Z,11844
2016-08-08T07:45:31.585Z,11816
2016-08-08T07:46:31.599Z,11780
2016-08-08T07:47:31.603Z,11812
2016-08-08T07:48:31.616Z,11636
2016-08-08T07:49:31.663Z,11356
2016-08-08T07:50:31.632Z,10628
2016-08-08T07:51:31.650Z,9660
2016-08-08T07:52:31.655Z,9048
2016-08-08T07:53:31.722Z,8604
2016-08-08T07:54:31.665Z,8272
2016-08-08T07:55:31.755Z,8580
2016-08-08T07:56:31.685Z,9280
2016-08-08T07:57:32.410Z,9824
2016-08-08T07:58:31.707Z,9932
2016-08-08T07:59:31.706Z,10208
2016-08-08T08:00:31.764Z,10688
2016-08-08T08:01:31.730Z,10896
2016-08-08T08:02:31.728Z,10892
2016-08-08T08:03:31.739Z,10848
2016-08-08T08:04:31.746Z,10804
2016-08-08T08:05:31.835Z,10732
2016-08-08T08:06:31.766Z,10700
2016-08-08T08:07:31.774Z,10668
2016-08-08T08:08:31.778Z,10660
2016-08-08T08:09:31.796Z,10668
2016-08-08T08:10:31.817Z,10672
2016-08-08T08:11:31.804Z,10676
2016-08-08T08:12:31.812Z,10708
2016-08-08T08:13:31.816Z,10592
2016-08-08T08:14:31.837Z,10528
2016-08-08T08:15:31.843Z,10508
2016-08-08T08:16:31.853Z,10424
2016-08-08T08:17:31.868Z,10312
2016-08-08T08:18:31.882Z,10216
2016-08-08T08:19:31.879Z,10132
2016-08-08T08:20:31.957Z,10068
2016-08-08T08:21:31.895Z,9968
2016-08-08T08:22:31.901Z,9856
2016-08-08T08:23:31.917Z,9852
2016-08-08T08:24:31.938Z,9788
2016-08-08T08:25:31.939Z,9660
2016-08-08T08:26:31.948Z,9636
2016-08-08T08:27:31.968Z,9604
2016-08-08T08:28:31.975Z,9540
2016-08-08T08:29:31.974Z,9432
2016-08-08T08:30:31.983Z,9368
2016-08-08T08:31:31.991Z,9332
2016-08-08T08:32:31.996Z,9260
2016-08-08T08:33:32.023Z,9176
2016-08-08T08:34:32.016Z,9108
2016-08-08T08:35:32.027Z,9064
2016-08-08T08:36:32.051Z,9004
2016-08-08T08:37:32.042Z,8980
2016-08-08T08:38:32.054Z,8952
2016-08-08T08:39:32.773Z,8816
2016-08-08T08:40:32.076Z,8720
2016-08-08T08:41:32.087Z,8600
2016-08-08T08:42:32.107Z,8528
2016-08-08T08:44:32.120Z,8376
2016-08-08T08:45:32.122Z,8400
2016-08-08T08:46:32.139Z,8376
2016-08-08T08:47:32.141Z,8324
2016-08-08T08:48:32.175Z,8268
2016-08-08T08:49:32.167Z,8208
2016-08-08T08:50:32.192Z,8136
2016-08-08T08:51:32.201Z,8112
2016-08-08T08:52:32.191Z,8112
2016-08-08T08:53:32.252Z,8124
2016-08-08T08:54:32.235Z,8116
2016-08-08T08:55:32.307Z,8108
2016-08-08T08:56:32.233Z,8064
2016-08-08T08:57:32.265Z,8028
2016-08-08T08:58:32.278Z,8020
2016-08-08T08:59:32.261Z,7992
2016-08-08T09:00:32.392Z,7924
2016-08-08T09:01:32.282Z,7884
2016-08-08T09:02:32.292Z,7852
2016-08-08T09:03:32.295Z,7788
2016-08-08T09:04:32.302Z,7764
2016-08-08T09:05:33.095Z,7676
2016-08-08T09:06:32.319Z,7640
2016-08-08T09:07:32.339Z,7600
2016-08-08T09:08:32.355Z,7576
2016-08-08T09:09:33.051Z,7480
2016-08-08T09:10:32.362Z,7576
2016-08-08T09:11:32.376Z,7520
2016-08-08T09:12:32.364Z,7624
2016-08-08T09:13:32.406Z,7588
2016-08-08T09:14:32.382Z,6780
2016-08-08T09:15:33.913Z,7632
2016-08-08T09:16:32.395Z,7624
2016-08-08T09:17:32.424Z,7600
2016-08-08T09:18:32.412Z,7608
2016-08-08T09:19:32.412Z,7612
2016-08-08T09:20:32.443Z,7596
2016-08-08T09:21:32.425Z,7584
2016-08-08T09:22:32.441Z,7564
2016-08-08T09:23:32.446Z,7596
2016-08-08T09:24:32.443Z,7552
2016-08-08T09:25:33.251Z,7428
2016-08-08T09:26:32.474Z,7676
2016-08-08T09:27:32.466Z,7720
2016-08-08T09:28:32.527Z,7780
2016-08-08T09:29:32.489Z,7780
2016-08-08T09:30:32.590Z,7800
2016-08-08T09:31:32.488Z,7788
2016-08-08T09:32:32.502Z,7772
2016-08-08T09:33:32.498Z,7704
2016-08-08T09:34:32.517Z,7672
2016-08-08T09:35:32.523Z,7656
2016-08-08T09:36:32.517Z,7604
2016-08-08T09:37:32.529Z,7572
2016-08-08T09:38:33.254Z,7576
2016-08-08T09:39:33.307Z,7636
2016-08-08T09:40:32.602Z,7812
2016-08-08T09:41:33.272Z,7828
2016-08-08T09:42:32.560Z,7740
2016-08-08T09:44:32.574Z,7972
2016-08-08T09:45:32.685Z,8128
2016-08-08T09:46:32.588Z,8252
2016-08-08T09:47:32.589Z,8264
2016-08-08T09:48:32.593Z,8068
2016-08-08T09:49:32.604Z,8008
2016-08-08T09:50:32.680Z,7732
2016-08-08T09:51:32.629Z,7984
2016-08-08T09:52:32.643Z,6432
2016-08-08T09:53:33.500Z,7976
2016-08-08T09:54:32.630Z,5572
2016-08-08T09:55:32.694Z,5616
2016-08-08T09:56:32.636Z,6240
2016-08-08T09:57:32.657Z,8460
2016-08-08T09:59:32.695Z,7724
2016-08-08T10:00:32.676Z,8980
2016-08-08T10:01:32.672Z,7368
2016-08-08T10:02:32.719Z,7920
2016-08-08T10:03:32.694Z,8080
2016-08-08T10:04:32.697Z,8472
2016-08-08T10:05:32.771Z,8440
2016-08-08T10:06:32.716Z,8568
2016-08-08T10:07:32.719Z,9392
2016-08-08T10:08:32.724Z,8732
2016-08-08T10:09:34.143Z,10492
2016-08-08T10:10:33.446Z,11600
2016-08-08T10:11:32.733Z,10292
2016-08-08T10:12:32.737Z,11820
2016-08-08T10:14:32.748Z,9660
2016-08-08T10:15:32.829Z,9624
2016-08-08T10:16:32.788Z,10056
2016-08-08T10:17:32.780Z,11280
2016-08-08T10:18:32.783Z,11512
2016-08-08T10:19:32.786Z,11532
2016-08-08T10:20:32.815Z,9008
2016-08-08T10:21:32.796Z,8972
2016-08-08T10:22:32.808Z,8708
2016-08-08T10:23:32.811Z,8368
2016-08-08T10:24:32.818Z,8076
2016-08-08T10:25:32.904Z,7852
2016-08-08T10:26:32.825Z,7832
2016-08-08T10:27:32.837Z,8008
2016-08-08T10:28:32.845Z,8192
2016-08-08T10:29:32.888Z,10264
2016-08-08T10:30:32.876Z,8188
2016-08-08T10:31:32.877Z,9148
2016-08-08T10:32:32.866Z,8324
2016-08-08T10:33:32.880Z,7380
2016-08-08T10:34:32.879Z,8784
2016-08-08T10:35:32.973Z,7220
2016-08-08T10:36:32.914Z,6048
2016-08-08T10:37:32.906Z,6080
2016-08-08T10:38:32.910Z,6832
2016-08-08T10:39:32.947Z,8936
2016-08-08T10:40:33.032Z,8848
2016-08-08T10:41:32.923Z,7620
2016-08-08T10:42:32.941Z,7988
2016-08-08T10:44:32.952Z,9284
2016-08-08T10:45:32.971Z,9596
2016-08-08T10:46:32.969Z,9636
2016-08-08T10:47:32.976Z,9576
2016-08-08T10:48:32.974Z,9648
2016-08-08T10:49:32.989Z,9128
2016-08-08T10:50:33.022Z,10084
2016-08-08T10:51:32.999Z,10088
2016-08-08T10:52:33.002Z,8856
2016-08-08T10:53:33.323Z,9552
2016-08-08T10:54:33.013Z,11368
2016-08-08T10:55:33.060Z,11664
2016-08-08T10:56:33.032Z,12124
2016-08-08T10:57:33.033Z,12232
2016-08-08T10:58:33.040Z,12308
2016-08-08T10:59:33.048Z,12300
2016-08-08T11:00:33.789Z,11296
2016-08-08T11:01:33.067Z,12164
2016-08-08T11:02:33.781Z,12232
2016-08-08T11:03:33.093Z,12220
2016-08-08T11:04:33.097Z,10152
2016-08-08T11:05:33.156Z,10060
2016-08-08T11:06:33.095Z,10004
2016-08-08T11:07:33.118Z,9972
2016-08-08T11:08:33.111Z,10068
2016-08-08T11:09:33.119Z,10464
2016-08-08T11:10:33.253Z,10316
2016-08-08T11:11:33.197Z,10180
2016-08-08T11:12:33.141Z,9740
2016-08-08T11:13:33.153Z,10056
2016-08-08T11:14:33.166Z,10016
2016-08-08T11:15:33.179Z,9816
2016-08-08T11:16:33.170Z,11596
2016-08-08T11:17:33.199Z,10452
2016-08-08T11:18:33.197Z,11220
2016-08-08T11:19:33.211Z,10144
2016-08-08T11:20:33.210Z,12032
2016-08-08T11:21:33.208Z,11756
2016-08-08T11:22:33.210Z,11176
2016-08-08T11:23:33.218Z,11672
2016-08-08T11:24:33.227Z,10028
2016-08-08T11:25:33.272Z,11400
2016-08-08T11:26:33.259Z,11800
2016-08-08T11:27:33.253Z,11988
2016-08-08T11:28:33.608Z,12228
2016-08-08T11:29:33.278Z,10884
2016-08-08T11:30:33.305Z,10304
2016-08-08T11:31:33.290Z,9996
2016-08-08T11:32:33.292Z,11512
2016-08-08T11:33:33.289Z,9840
2016-08-08T11:34:33.299Z,9688
2016-08-08T11:35:33.371Z,9996
2016-08-08T11:36:33.322Z,10428
2016-08-08T11:37:33.321Z,10460
2016-08-08T11:38:33.324Z,10320
2016-08-08T11:39:33.353Z,9940
2016-08-08T11:40:33.422Z,10228
2016-08-08T11:41:34.062Z,10200
2016-08-08T11:42:33.394Z,10152
2016-08-08T11:43:33.369Z,9880
2016-08-08T11:44:33.392Z,9576
2016-08-08T11:45:33.444Z,9476
2016-08-08T11:46:33.417Z,9900
2016-08-08T11:47:34.111Z,10132
2016-08-08T11:48:34.116Z,10572
2016-08-08T11:49:33.418Z,10556
2016-08-08T11:50:33.452Z,10988
2016-08-08T11:51:33.422Z,11724
2016-08-08T11:52:33.428Z,9704
2016-08-08T11:53:33.487Z,10304
2016-08-08T11:54:33.455Z,10304
2016-08-08T11:55:33.489Z,9456
2016-08-08T11:56:33.462Z,9284
2016-08-08T11:57:33.484Z,9292
2016-08-08T11:58:33.493Z,9164
2016-08-08T11:59:34.203Z,9220
2016-08-08T12:00:33.547Z,8748
2016-08-08T12:01:33.493Z,8992
2016-08-08T12:02:33.499Z,8772
2016-08-08T12:03:33.505Z,8584
2016-08-08T12:04:33.515Z,8672
2016-08-08T12:05:33.572Z,9784
2016-08-08T12:06:33.532Z,10044
2016-08-08T12:07:33.563Z,8368
2016-08-08T12:08:34.263Z,10560
2016-08-08T12:09:33.551Z,9872
2016-08-08T12:10:33.575Z,9888
2016-08-08T12:11:33.563Z,11504
2016-08-08T12:12:33.574Z,10720
2016-08-08T12:13:33.577Z,10828
2016-08-08T12:14:33.582Z,12088
2016-08-08T12:15:33.640Z,12308
2016-08-08T12:16:33.600Z,12116
2016-08-08T12:17:33.619Z,12056
2016-08-08T12:18:33.619Z,10700
2016-08-08T12:19:33.628Z,10248
2016-08-08T12:20:33.708Z,10880
2016-08-08T12:21:33.643Z,11532
2016-08-08T12:22:33.640Z,10860
2016-08-08T12:23:33.655Z,10708
2016-08-08T12:24:33.659Z,10508
2016-08-08T12:25:33.683Z,9964
2016-08-08T12:26:33.668Z,10736
2016-08-08T12:27:33.683Z,10776
2016-08-08T12:28:33.690Z,10292
2016-08-08T12:29:33.709Z,10672
2016-08-08T12:30:33.777Z,9240
2016-08-08T12:31:33.711Z,9044
2016-08-08T12:32:33.712Z,9060
2016-08-08T12:33:33.740Z,9640
2016-08-08T12:34:33.732Z,10516
2016-08-08T12:35:33.849Z,10164
2016-08-08T12:36:33.759Z,10020
2016-08-08T12:37:33.761Z,9916
2016-08-08T12:38:34.477Z,8624
2016-08-08T12:39:33.767Z,8460
2016-08-08T12:40:33.809Z,8524
2016-08-08T12:41:33.778Z,8604
2016-08-08T12:42:33.794Z,8616
2016-08-08T12:43:33.791Z,8648
2016-08-08T12:44:33.810Z,8832
2016-08-08T12:45:33.808Z,9124
2016-08-08T12:46:33.817Z,9392
2016-08-08T12:47:33.834Z,10092
2016-08-08T12:48:34.535Z,10740
2016-08-08T12:49:33.836Z,9900
2016-08-08T12:50:33.911Z,9868
2016-08-08T12:51:33.851Z,9612
2016-08-08T12:52:33.855Z,9436
2016-08-08T12:53:34.022Z,9712
2016-08-08T12:54:33.876Z,9008
2016-08-08T12:55:33.894Z,8980
2016-08-08T12:56:33.881Z,9768
2016-08-08T12:57:33.892Z,8860
2016-08-08T12:58:33.913Z,9124
2016-08-08T12:59:33.922Z,9332
2016-08-08T13:00:33.927Z,10580
2016-08-08T13:01:33.921Z,10700
2016-08-08T13:02:33.926Z,10564
2016-08-08T13:03:33.956Z,9268
2016-08-08T13:04:33.942Z,8940
2016-08-08T13:05:33.943Z,8456
2016-08-08T13:06:33.957Z,8200
2016-08-08T13:07:33.973Z,9500
2016-08-08T13:08:33.979Z,9452
2016-08-08T13:09:33.987Z,9876
2016-08-08T13:10:34.057Z,8984
2016-08-08T13:11:33.998Z,9428
2016-08-08T13:12:34.004Z,9628
2016-08-08T13:13:34.018Z,9316
2016-08-08T13:14:34.028Z,8768
2016-08-08T13:15:34.037Z,8560
2016-08-08T13:16:34.028Z,8696
2016-08-08T13:17:34.027Z,9104
2016-08-08T13:18:34.038Z,9228
2016-08-08T13:19:34.765Z,9556
2016-08-08T13:20:34.798Z,9596
2016-08-08T13:21:34.067Z,9320
2016-08-08T13:22:34.069Z,9036
2016-08-08T13:23:34.074Z,9052
2016-08-08T13:24:34.099Z,9356
2016-08-08T13:25:34.157Z,10648
2016-08-08T13:26:34.088Z,9336
2016-08-08T13:27:34.101Z,9460
2016-08-08T13:28:34.120Z,9180
2016-08-08T13:29:34.134Z,8720
2016-08-08T13:30:34.166Z,8280
2016-08-08T13:31:34.137Z,8312
2016-08-08T13:32:34.139Z,8656
2016-08-08T13:33:34.149Z,8928
2016-08-08T13:34:34.161Z,8716
2016-08-08T13:35:34.245Z,8588
2016-08-08T13:36:34.164Z,8360
2016-08-08T13:37:34.180Z,9292
2016-08-08T13:38:34.182Z,9320
2016-08-08T13:39:34.176Z,8744
2016-08-08T13:40:34.205Z,8404
2016-08-08T13:41:34.197Z,8384
2016-08-08T13:42:34.200Z,6908
2016-08-08T13:43:34.211Z,6460
2016-08-08T13:44:34.239Z,6268
2016-08-08T13:45:34.274Z,6372
2016-08-08T13:46:34.222Z,6740